Time;durP1;ratioP1;P1;durP2;ratioP2;P2;SDS_P1;SDS_P2;PMS_P1;PMS_P2;Temp;Humidity;BMP_temperature;BMP_pressure;BME280_temperature;BME280_humidity;BME280_pressure;Samples;Min_cycle;Max_cycle;Signal;HPM_P1;HPM_P2
2023/01/25 00:02:05;;;;;;;;;;;3.50;99.90;;;;;;5014767;28;19999;-82
2023/01/25 00:04:31;;;;;;;;;;;3.50;99.90;;;;;;5014737;28;19905;-82
2023/01/25 00:06:56;;;;;;;;;;;3.50;99.90;;;;;;5013339;28;19911;-82
2023/01/25 00:09:22;;;;;;;;;;;3.50;99.90;;;;;;5015090;28;19905;-82
2023/01/25 00:11:47;;;;;;;;;;;3.50;99.90;;;;;;5014888;28;20296;-82
2023/01/25 00:14:14;;;;;;;;;;;3.50;99.90;;;;;;5014826;28;19952;-82
2023/01/25 00:16:39;;;;;;;;;;;3.50;99.90;;;;;;5013458;28;19912;-82
2023/01/25 00:19:06;;;;;;;;;;;3.50;99.90;;;;;;5014623;28;19910;-82
2023/01/25 00:21:32;;;;;;;;;;;3.50;99.90;;;;;;5013592;28;19943;-82
2023/01/25 00:23:58;;;;;;;;;;;3.50;99.90;;;;;;5014890;28;19917;-82
2023/01/25 00:26:24;;;;;;;;;;;3.40;99.90;;;;;;5014503;28;19906;-82
2023/01/25 00:28:50;;;;;;;;;;;3.50;99.90;;;;;;5014723;28;19905;-82
2023/01/25 00:31:20;;;;;;;;;;;3.50;99.90;;;;;;5014542;28;19912;-82
2023/01/25 00:33:50;;;;;;;;;;;3.40;99.90;;;;;;5014714;28;20369;-82
2023/01/25 00:36:25;;;;;;;;;;;3.50;99.90;;;;;;5014221;28;19917;-82
2023/01/25 00:38:52;;;;;;;;;;;3.50;99.90;;;;;;5012895;28;19956;-82
2023/01/25 00:41:17;;;;;;;;;;;3.50;99.90;;;;;;5014189;28;19916;-82
2023/01/25 00:43:43;;;;;;;;;;;3.40;99.90;;;;;;5013023;28;19905;-82
2023/01/25 00:46:08;;;;;;;;;;;3.50;99.90;;;;;;5014530;28;19905;-82
2023/01/25 00:48:33;;;;;;;;;;;3.50;99.90;;;;;;5013018;28;19912;-82
2023/01/25 00:51:00;;;;;;;;;;;3.50;99.90;;;;;;5014147;28;19992;-82
2023/01/25 00:53:25;;;;;;;;;;;3.50;99.90;;;;;;5013963;28;20000;-82
2023/01/25 00:55:53;;;;;;;;;;;3.50;99.90;;;;;;5014153;28;20381;-82
2023/01/25 00:58:19;;;;;;;;;;;3.50;99.90;;;;;;5013587;28;19909;-82
2023/01/25 01:00:44;;;;;;;;;;;3.50;99.90;;;;;;5014272;28;19916;-82
2023/01/25 01:03:10;;;;;;;;;;;3.50;99.90;;;;;;5013911;28;19909;-82
2023/01/25 01:05:36;;;;;;;;;;;3.50;99.90;;;;;;5014265;28;19913;-82
2023/01/25 01:08:02;;;;;;;;;;;3.50;99.90;;;;;;5014023;28;20039;-82
2023/01/25 01:10:28;;;;;;;;;;;3.50;99.90;;;;;;5013800;28;20349;-82
2023/01/25 01:12:53;;;;;;;;;;;3.50;99.90;;;;;;5014070;28;20331;-82
2023/01/25 01:15:19;;;;;;;;;;;3.50;99.90;;;;;;5013825;28;20000;-82
2023/01/25 01:17:44;;;;;;;;;;;3.50;99.90;;;;;;5013541;28;19913;-82
2023/01/25 01:20:10;;;;;;;;;;;3.50;99.90;;;;;;5013638;28;19987;-82
2023/01/25 01:22:36;;;;;;;;;;;3.50;99.90;;;;;;5013052;28;19917;-82
2023/01/25 01:25:01;;;;;;;;;;;3.50;99.90;;;;;;5012746;28;20356;-82
2023/01/25 01:27:27;;;;;;;;;;;3.50;99.90;;;;;;5013493;28;19971;-82
2023/01/25 01:29:52;;;;;;;;;;;3.50;99.90;;;;;;5012468;28;19909;-82
2023/01/25 01:32:18;;;;;;;;;;;3.50;99.90;;;;;;5013289;28;19933;-82
2023/01/25 01:34:43;;;;;;;;;;;3.50;99.90;;;;;;5013211;28;19905;-82
2023/01/25 01:37:09;;;;;;;;;;;3.50;99.90;;;;;;5013233;28;19948;-82
2023/01/25 01:39:34;;;;;;;;;;;3.50;99.90;;;;;;5012204;28;20292;-82
2023/01/25 01:42:00;;;;;;;;;;;3.50;99.90;;;;;;5012148;28;19916;-82
2023/01/25 01:44:44;;;;;;;;;;;3.50;99.90;;;;;;5013270;28;19913;-82
2023/01/25 01:47:25;;;;;;;;;;;3.50;99.90;;;;;;5013437;28;19905;-82
2023/01/25 01:49:56;;;;;;;;;;;3.50;99.90;;;;;;5013780;28;19909;-82
2023/01/25 01:52:24;;;;;;;;;;;3.50;99.90;;;;;;5013328;28;19905;-82
2023/01/25 01:54:53;;;;;;;;;;;3.50;99.90;;;;;;5012990;28;19906;-82
2023/01/25 01:57:27;;;;;;;;;;;3.50;99.90;;;;;;5013273;28;20345;-82
2023/01/25 01:59:55;;;;;;;;;;;3.50;99.90;;;;;;5012080;28;19920;-82
2023/01/25 02:02:22;;;;;;;;;;;3.50;99.90;;;;;;5013235;28;19974;-82
2023/01/25 02:04:48;;;;;;;;;;;3.40;99.90;;;;;;5013270;28;19941;-82
2023/01/25 02:07:16;;;;;;;;;;;3.50;99.90;;;;;;5013251;28;19963;-82
2023/01/25 02:09:42;;;;;;;;;;;3.50;99.90;;;;;;5013511;28;19909;-82
2023/01/25 02:12:08;;;;;;;;;;;3.50;99.90;;;;;;5013543;28;20368;-82
2023/01/25 02:14:33;;;;;;;;;;;3.50;99.90;;;;;;5012881;28;19909;-82
2023/01/25 02:16:59;;;;;;;;;;;3.40;99.90;;;;;;5013043;28;19909;-82
2023/01/25 02:19:42;;;;;;;;;;;3.50;99.90;;;;;;5013077;28;19972;-82
2023/01/25 02:22:09;;;;;;;;;;;3.50;99.90;;;;;;5012635;28;19983;-82
2023/01/25 02:24:38;;;;;;;;;;;3.50;99.90;;;;;;5013202;28;19913;-82
2023/01/25 02:27:03;;;;;;;;;;;3.40;99.90;;;;;;5013000;28;19909;-82
2023/01/25 02:29:29;;;;;;;;;;;3.40;99.90;;;;;;5012893;28;19959;-82
2023/01/25 02:31:58;;;;;;;;;;;3.50;99.90;;;;;;5012896;28;20361;-82
2023/01/25 02:34:24;;;;;;;;;;;3.50;99.90;;;;;;5012513;28;19909;-82
2023/01/25 02:36:49;;;;;;;;;;;3.50;99.90;;;;;;5016193;28;19909;-82
2023/01/25 02:39:17;;;;;;;;;;;3.50;99.90;;;;;;5016495;28;20274;-81
2023/01/25 02:41:43;;;;;;;;;;;3.50;99.90;;;;;;5015539;28;19947;-82
2023/01/25 02:44:11;;;;;;;;;;;3.50;99.90;;;;;;5016580;28;19905;-82
2023/01/25 02:46:39;;;;;;;;;;;3.50;99.90;;;;;;5016159;28;19913;-82
2023/01/25 02:49:05;;;;;;;;;;;3.50;99.90;;;;;;5016165;28;19906;-82
2023/01/25 02:51:32;;;;;;;;;;;3.50;99.90;;;;;;5016348;28;20269;-82
2023/01/25 02:53:58;;;;;;;;;;;3.50;99.90;;;;;;5016285;28;19913;-82
2023/01/25 02:56:24;;;;;;;;;;;3.40;99.90;;;;;;5016317;28;19911;-82
2023/01/25 02:58:50;;;;;;;;;;;3.50;99.90;;;;;;5016224;28;20379;-82
2023/01/25 03:01:16;;;;;;;;;;;3.50;99.90;;;;;;5016128;28;19905;-82
2023/01/25 03:03:41;;;;;;;;;;;3.50;99.90;;;;;;5016540;28;19906;-80
2023/01/25 03:06:07;;;;;;;;;;;3.50;99.90;;;;;;5016505;28;19971;-82
2023/01/25 03:08:33;;;;;;;;;;;3.50;99.90;;;;;;5015884;28;19905;-82
2023/01/25 03:11:00;;;;;;;;;;;3.50;99.90;;;;;;5016049;28;19906;-82
2023/01/25 03:13:26;;;;;;;;;;;3.50;99.90;;;;;;5015856;28;19918;-82
2023/01/25 03:15:57;;;;;;;;;;;3.50;99.90;;;;;;5016018;28;20269;-82
2023/01/25 03:18:22;;;;;;;;;;;3.50;99.90;;;;;;5015779;28;20007;-82
2023/01/25 03:20:48;;;;;;;;;;;3.50;99.90;;;;;;5015741;28;19940;-82
2023/01/25 03:23:13;;;;;;;;;;;3.50;99.90;;;;;;5015701;28;19959;-82
2023/01/25 03:25:38;;;;;;;;;;;3.50;99.90;;;;;;5015835;28;19906;-82
2023/01/25 03:28:04;;;;;;;;;;;3.50;99.90;;;;;;5015541;28;20372;-82
2023/01/25 03:30:30;;;;;;;;;;;3.50;99.90;;;;;;5015728;28;19964;-82
2023/01/25 03:32:55;;;;;;;;;;;3.50;99.90;;;;;;5016064;28;19909;-82
2023/01/25 03:35:21;;;;;;;;;;;3.50;99.90;;;;;;5015752;28;19920;-82
2023/01/25 03:37:46;;;;;;;;;;;3.50;99.90;;;;;;5015748;28;19909;-82
2023/01/25 03:40:12;;;;;;;;;;;3.50;99.90;;;;;;5015834;28;19906;-82
2023/01/25 03:42:37;;;;;;;;;;;3.50;99.90;;;;;;5015901;28;20284;-82
2023/01/25 03:45:03;;;;;;;;;;;3.40;99.90;;;;;;5015432;28;20292;-82
2023/01/25 03:47:28;;;;;;;;;;;3.50;99.90;;;;;;5014118;28;19906;-82
2023/01/25 03:49:54;;;;;;;;;;;3.50;99.90;;;;;;5015334;28;19995;-82
2023/01/25 03:52:19;;;;;;;;;;;3.50;99.90;;;;;;5015452;28;20391;-82
2023/01/25 03:54:45;;;;;;;;;;;3.50;99.90;;;;;;5015360;28;19909;-82
2023/01/25 03:57:11;;;;;;;;;;;3.50;99.90;;;;;;5014622;28;19968;-82
2023/01/25 03:59:37;;;;;;;;;;;3.50;99.90;;;;;;5015273;28;19905;-82
2023/01/25 04:02:02;;;;;;;;;;;3.50;99.90;;;;;;5015229;28;19905;-82
2023/01/25 04:04:28;;;;;;;;;;;3.60;99.90;;;;;;5015179;28;19905;-82
2023/01/25 04:06:53;;;;;;;;;;;3.50;99.90;;;;;;5014833;28;19956;-82
2023/01/25 04:09:19;;;;;;;;;;;3.60;99.90;;;;;;5014775;28;20257;-82
2023/01/25 04:11:47;;;;;;;;;;;3.50;99.90;;;;;;5015423;28;19921;-82
2023/01/25 04:14:13;;;;;;;;;;;3.50;99.90;;;;;;5013826;28;19917;-82
2023/01/25 04:16:38;;;;;;;;;;;3.50;99.90;;;;;;5014706;28;19909;-82
2023/01/25 04:19:04;;;;;;;;;;;3.50;99.90;;;;;;5014569;28;20398;-81
2023/01/25 04:21:29;;;;;;;;;;;3.50;99.90;;;;;;5014456;28;20393;-82
2023/01/25 04:23:55;;;;;;;;;;;3.50;99.90;;;;;;5012866;28;19906;-82
2023/01/25 04:26:20;;;;;;;;;;;3.50;99.90;;;;;;5013367;28;19909;-82
2023/01/25 04:28:46;;;;;;;;;;;3.50;99.90;;;;;;5014252;28;20387;-82
2023/01/25 04:31:11;;;;;;;;;;;3.50;99.90;;;;;;5014323;28;19905;-82
2023/01/25 04:33:37;;;;;;;;;;;3.50;99.90;;;;;;5015009;28;19905;-82
2023/01/25 04:36:03;;;;;;;;;;;3.40;99.90;;;;;;5014187;28;19905;-83
2023/01/25 04:38:28;;;;;;;;;;;3.40;99.90;;;;;;5013922;28;20016;-83
2023/01/25 04:40:54;;;;;;;;;;;3.40;99.90;;;;;;5014307;28;19905;-83
2023/01/25 04:43:19;;;;;;;;;;;3.50;99.90;;;;;;5014184;28;19912;-83
2023/01/25 04:45:45;;;;;;;;;;;3.40;99.90;;;;;;5014197;28;19942;-83
2023/01/25 04:48:11;;;;;;;;;;;3.40;99.90;;;;;;5014409;28;19959;-82
2023/01/25 04:50:40;;;;;;;;;;;3.50;99.90;;;;;;5013164;28;19906;-82
2023/01/25 04:53:06;;;;;;;;;;;3.50;99.90;;;;;;5014436;28;20003;-83
2023/01/25 04:55:33;;;;;;;;;;;3.50;99.90;;;;;;5014551;28;19945;-82
2023/01/25 04:57:58;;;;;;;;;;;3.40;99.90;;;;;;5013998;28;20372;-83
2023/01/25 05:00:24;;;;;;;;;;;3.50;99.90;;;;;;5014260;28;19909;-82
2023/01/25 05:02:49;;;;;;;;;;;3.50;99.90;;;;;;5013982;28;19941;-82
2023/01/25 05:05:15;;;;;;;;;;;3.40;99.90;;;;;;5013971;28;19905;-82
2023/01/25 05:07:40;;;;;;;;;;;3.50;99.90;;;;;;5014365;28;19909;-82
2023/01/25 05:10:06;;;;;;;;;;;3.40;99.90;;;;;;5014392;28;19913;-83
2023/01/25 05:12:32;;;;;;;;;;;3.40;99.90;;;;;;5014383;28;19909;-82
2023/01/25 05:14:57;;;;;;;;;;;3.40;99.90;;;;;;5013923;28;19964;-83
2023/01/25 05:17:23;;;;;;;;;;;3.30;99.90;;;;;;5013865;28;19976;-82
2023/01/25 05:19:48;;;;;;;;;;;3.30;99.90;;;;;;5012687;28;19905;-82
2023/01/25 05:22:16;;;;;;;;;;;3.30;99.90;;;;;;5013774;28;19918;-82
2023/01/25 05:24:41;;;;;;;;;;;3.30;99.90;;;;;;5013705;28;20407;-82
2023/01/25 05:27:08;;;;;;;;;;;3.40;99.90;;;;;;5013709;28;19905;-82
2023/01/25 05:29:38;;;;;;;;;;;3.40;99.90;;;;;;5013763;28;19912;-83
2023/01/25 05:32:05;;;;;;;;;;;3.40;99.90;;;;;;5013763;28;20000;-82
2023/01/25 05:34:31;;;;;;;;;;;3.30;99.90;;;;;;5012185;28;19913;-82
2023/01/25 05:36:57;;;;;;;;;;;3.30;99.90;;;;;;5013182;28;20383;-82
2023/01/25 05:39:22;;;;;;;;;;;3.30;99.90;;;;;;5013693;28;19905;-83
2023/01/25 05:41:48;;;;;;;;;;;3.40;99.90;;;;;;5013787;28;20380;-82
2023/01/25 05:44:13;;;;;;;;;;;3.30;99.90;;;;;;5013574;28;19905;-82
2023/01/25 05:46:39;;;;;;;;;;;3.30;99.90;;;;;;5013058;28;20369;-83
2023/01/25 05:49:04;;;;;;;;;;;3.30;99.90;;;;;;5013197;28;19952;-83
2023/01/25 05:51:30;;;;;;;;;;;3.30;99.90;;;;;;5013605;28;19959;-82
2023/01/25 05:53:56;;;;;;;;;;;3.30;99.90;;;;;;5012724;28;20295;-82
2023/01/25 05:56:21;;;;;;;;;;;3.30;99.90;;;;;;5011049;28;19959;-82
2023/01/25 05:58:51;;;;;;;;;;;3.20;99.90;;;;;;5012933;28;19955;-83
2023/01/25 06:01:16;;;;;;;;;;;3.20;99.90;;;;;;5012111;28;19951;-82
2023/01/25 06:03:42;;;;;;;;;;;3.20;99.90;;;;;;5013592;28;20339;-82
2023/01/25 06:06:07;;;;;;;;;;;3.20;99.90;;;;;;5013472;28;19913;-83
2023/01/25 06:08:33;;;;;;;;;;;3.30;99.90;;;;;;5013271;28;19905;-82
2023/01/25 06:10:58;;;;;;;;;;;3.30;99.90;;;;;;5015853;28;19909;-83
2023/01/25 06:13:24;;;;;;;;;;;3.30;99.90;;;;;;5016943;28;19909;-82
2023/01/25 06:15:56;;;;;;;;;;;3.30;99.90;;;;;;5016647;28;20288;-82
2023/01/25 06:18:23;;;;;;;;;;;3.30;99.90;;;;;;5016655;28;19968;-82
2023/01/25 06:20:49;;;;;;;;;;;3.30;99.90;;;;;;5016845;28;19909;-82
2023/01/25 06:23:14;;;;;;;;;;;3.20;99.90;;;;;;5017046;28;20395;-82
2023/01/25 06:25:40;;;;;;;;;;;3.30;99.90;;;;;;5016620;28;19910;-82
2023/01/25 06:28:05;;;;;;;;;;;3.30;99.90;;;;;;5017055;28;19905;-83
2023/01/25 06:30:31;;;;;;;;;;;3.30;99.90;;;;;;5015367;28;20364;-83
2023/01/25 06:32:57;;;;;;;;;;;3.30;99.90;;;;;;5016903;28;19905;-82
2023/01/25 06:35:22;;;;;;;;;;;3.30;99.90;;;;;;5016745;28;19959;-83
2023/01/25 06:37:48;;;;;;;;;;;3.30;99.90;;;;;;5016545;28;20368;-82
2023/01/25 06:40:14;;;;;;;;;;;3.30;99.90;;;;;;5016456;28;19996;-82
2023/01/25 06:42:39;;;;;;;;;;;3.30;99.90;;;;;;5016591;28;19916;-82
2023/01/25 06:45:05;;;;;;;;;;;3.30;99.90;;;;;;5016515;28;19905;-82
2023/01/25 06:47:31;;;;;;;;;;;3.30;99.90;;;;;;5016417;28;19939;-83
2023/01/25 06:49:56;;;;;;;;;;;3.30;99.90;;;;;;5016815;28;19905;-82
2023/01/25 06:52:22;;;;;;;;;;;3.30;99.90;;;;;;5016629;28;19905;-82
2023/01/25 06:54:47;;;;;;;;;;;3.30;99.90;;;;;;5016385;28;20281;-82
2023/01/25 06:57:13;;;;;;;;;;;3.30;99.90;;;;;;5015015;28;19909;-82
2023/01/25 06:59:38;;;;;;;;;;;3.30;99.90;;;;;;5018956;28;19905;-82
2023/01/25 07:02:04;;;;;;;;;;;3.30;99.90;;;;;;5024725;28;19909;-83
2023/01/25 07:04:30;;;;;;;;;;;3.30;99.90;;;;;;5027075;28;19905;-84
2023/01/25 07:06:56;;;;;;;;;;;3.30;99.90;;;;;;5027010;28;19908;-82
2023/01/25 07:09:23;;;;;;;;;;;3.30;99.90;;;;;;5032549;28;19917;-85
2023/01/25 07:11:49;;;;;;;;;;;3.30;99.90;;;;;;5024136;28;19913;-84
2023/01/25 07:14:14;;;;;;;;;;;3.30;99.90;;;;;;5014434;28;20426;-85
2023/01/25 07:16:40;;;;;;;;;;;3.30;99.90;;;;;;5014141;28;19905;-85
2023/01/25 07:19:06;;;;;;;;;;;3.30;99.90;;;;;;5016269;28;19917;-84
2023/01/25 07:21:32;;;;;;;;;;;3.30;99.90;;;;;;5014627;28;19921;-85
2023/01/25 07:24:01;;;;;;;;;;;3.30;99.90;;;;;;5014835;28;19912;-85
2023/01/25 07:26:27;;;;;;;;;;;3.30;99.90;;;;;;5016599;28;19905;-84
2023/01/25 07:28:54;;;;;;;;;;;3.30;99.90;;;;;;5015610;28;19997;-84
2023/01/25 07:31:20;;;;;;;;;;;3.30;99.90;;;;;;5014977;28;19971;-84
2023/01/25 07:33:49;;;;;;;;;;;3.30;99.90;;;;;;5008269;28;19909;-85
2023/01/25 07:36:15;;;;;;;;;;;3.30;99.90;;;;;;5016138;28;20316;-85
2023/01/25 07:38:40;;;;;;;;;;;3.40;99.90;;;;;;5011463;28;20011;-83
2023/01/25 07:41:06;;;;;;;;;;;3.30;99.90;;;;;;5002672;28;19952;-84
2023/01/25 07:43:32;;;;;;;;;;;3.40;99.90;;;;;;5024257;28;19913;-86
2023/01/25 07:46:01;;;;;;;;;;;3.30;99.90;;;;;;5010711;28;19917;-81
2023/01/25 07:48:27;;;;;;;;;;;3.40;99.90;;;;;;5014173;28;20411;-85
2023/01/25 07:51:11;;;;;;;;;;;3.40;99.90;;;;;;5022893;28;19913;-86
2023/01/25 07:53:38;;;;;;;;;;;3.30;99.90;;;;;;5012756;28;19910;-86
2023/01/25 07:56:03;;;;;;;;;;;3.40;99.90;;;;;;5013378;28;20399;-86
2023/01/25 07:58:29;;;;;;;;;;;3.40;99.90;;;;;;5011662;28;19910;-85
2023/01/25 08:00:54;;;;;;;;;;;3.40;99.90;;;;;;5012646;28;19913;-85
2023/01/25 08:03:21;;;;;;;;;;;3.40;99.90;;;;;;5012365;28;19925;-81
2023/01/25 08:05:46;;;;;;;;;;;3.40;99.90;;;;;;5010957;28;19913;-84
2023/01/25 08:08:12;;;;;;;;;;;3.40;99.90;;;;;;5007238;28;19923;-85
2023/01/25 08:10:37;;;;;;;;;;;3.40;99.90;;;;;;5009562;28;19992;-83
2023/01/25 08:13:03;;;;;;;;;;;3.40;99.90;;;;;;5008056;28;20019;-77
2023/01/25 08:15:28;;;;;;;;;;;3.40;99.90;;;;;;5013769;28;19913;-79
2023/01/25 08:17:54;;;;;;;;;;;3.40;99.90;;;;;;5018196;28;19957;-82
2023/01/25 08:20:21;;;;;;;;;;;3.40;99.90;;;;;;5017951;28;19913;-83
2023/01/25 08:22:46;;;;;;;;;;;3.40;99.90;;;;;;5015089;28;20051;-80
2023/01/25 08:25:12;;;;;;;;;;;3.50;99.90;;;;;;5014985;28;19917;-77
2023/01/25 08:27:37;;;;;;;;;;;3.50;99.90;;;;;;5013231;28;20020;-78
2023/01/25 08:30:03;;;;;;;;;;;3.50;99.90;;;;;;5010478;28;20256;-81
2023/01/25 08:32:29;;;;;;;;;;;3.40;99.90;;;;;;5012369;28;19909;-78
2023/01/25 08:34:54;;;;;;;;;;;3.50;99.90;;;;;;5020030;28;20397;-81
2023/01/25 08:37:20;;;;;;;;;;;3.50;99.90;;;;;;5021838;28;19954;-80
2023/01/25 08:39:46;;;;;;;;;;;3.50;99.90;;;;;;5014539;28;19913;-79
2023/01/25 08:42:11;;;;;;;;;;;3.50;99.90;;;;;;5018682;28;19944;-80
2023/01/25 08:44:37;;;;;;;;;;;3.50;99.90;;;;;;5015060;28;19917;-80
2023/01/25 08:47:02;;;;;;;;;;;3.50;99.90;;;;;;5019312;28;19967;-80
2023/01/25 08:49:29;;;;;;;;;;;3.60;99.90;;;;;;5012624;28;19913;-78
2023/01/25 08:51:55;;;;;;;;;;;3.60;99.90;;;;;;5013286;28;19932;-79
2023/01/25 08:54:20;;;;;;;;;;;3.60;99.90;;;;;;5010526;28;20681;-78
2023/01/25 08:56:46;;;;;;;;;;;3.60;99.90;;;;;;5012132;28;19913;-78
2023/01/25 08:59:12;;;;;;;;;;;3.60;99.90;;;;;;5012096;28;19913;-79
2023/01/25 09:01:38;;;;;;;;;;;3.60;99.90;;;;;;5016266;28;19955;-78
2023/01/25 09:04:03;;;;;;;;;;;3.70;99.90;;;;;;5008935;28;20000;-79
2023/01/25 09:06:29;;;;;;;;;;;3.70;99.90;;;;;;5014546;28;19917;-77
2023/01/25 09:08:55;;;;;;;;;;;3.60;99.90;;;;;;5014458;28;19910;-77
2023/01/25 09:11:21;;;;;;;;;;;3.70;99.90;;;;;;5006607;28;20059;-78
2023/01/25 09:13:47;;;;;;;;;;;3.70;99.90;;;;;;5008912;28;19913;-79
2023/01/25 09:16:14;;;;;;;;;;;3.70;99.90;;;;;;5012137;28;19909;-78
2023/01/25 09:18:41;;;;;;;;;;;3.70;99.90;;;;;;5009525;28;19921;-78
2023/01/25 09:21:07;;;;;;;;;;;3.70;99.90;;;;;;5007347;28;20036;-78
2023/01/25 09:23:32;;;;;;;;;;;3.80;99.90;;;;;;5010803;28;20007;-77
2023/01/25 09:25:59;;;;;;;;;;;3.80;99.90;;;;;;5014095;28;20035;-78
2023/01/25 09:28:25;;;;;;;;;;;3.80;99.90;;;;;;5009968;28;19913;-78
2023/01/25 09:30:57;;;;;;;;;;;3.70;99.90;;;;;;5010529;28;20095;-79
2023/01/25 09:33:24;;;;;;;;;;;3.80;99.90;;;;;;5006928;28;20358;-78
2023/01/25 09:35:49;;;;;;;;;;;3.80;99.90;;;;;;5016210;28;19909;-78
2023/01/25 09:38:15;;;;;;;;;;;3.80;99.90;;;;;;5019735;28;19919;-79
2023/01/25 09:40:44;;;;;;;;;;;3.80;99.90;;;;;;5014606;28;20323;-79
2023/01/25 09:43:19;;;;;;;;;;;3.80;99.90;;;;;;5008966;28;19914;-78
2023/01/25 09:45:46;;;;;;;;;;;3.70;99.90;;;;;;5011256;28;19924;-78
2023/01/25 09:48:15;;;;;;;;;;;3.80;99.90;;;;;;5011744;28;19917;-78
2023/01/25 09:50:43;;;;;;;;;;;3.80;99.90;;;;;;5009816;28;19953;-81
2023/01/25 09:53:18;;;;;;;;;;;3.80;99.90;;;;;;5010347;28;19913;-77
2023/01/25 09:55:49;;;;;;;;;;;3.80;99.90;;;;;;5026041;28;19912;-80
2023/01/25 09:58:35;;;;;;;;;;;3.70;99.90;;;;;;5008695;28;19980;-78
2023/01/25 10:01:09;;;;;;;;;;;3.80;99.90;;;;;;5006906;28;19913;-78
2023/01/25 10:03:45;;;;;;;;;;;3.80;99.90;;;;;;5009727;28;19917;-78
2023/01/25 10:06:12;;;;;;;;;;;3.80;99.90;;;;;;5020946;28;20375;-80
2023/01/25 10:08:43;;;;;;;;;;;3.80;99.90;;;;;;5005203;28;19918;-79
2023/01/25 10:11:21;;;;;;;;;;;3.80;99.90;;;;;;5009348;28;19917;-80
2023/01/25 10:13:47;;;;;;;;;;;3.80;99.90;;;;;;5009376;28;20415;-77
2023/01/25 10:16:20;;;;;;;;;;;3.70;99.90;;;;;;5008070;28;20446;-81
2023/01/25 10:18:54;;;;;;;;;;;3.80;99.90;;;;;;5006846;28;20270;-78
2023/01/25 10:21:32;;;;;;;;;;;3.90;99.90;;;;;;5004295;28;19932;-80
2023/01/25 10:24:04;;;;;;;;;;;3.90;99.90;;;;;;5013356;28;19913;-80
2023/01/25 10:26:34;;;;;;;;;;;3.90;99.90;;;;;;5008657;28;19920;-81
2023/01/25 10:29:09;;;;;;;;;;;3.90;99.90;;;;;;5008576;28;19913;-77
2023/01/25 10:31:49;;;;;;;;;;;3.90;99.90;;;;;;5008611;28;19910;-77
2023/01/25 10:34:20;;;;;;;;;;;3.90;99.90;;;;;;5007833;28;19924;-78
2023/01/25 10:36:52;;;;;;;;;;;3.90;99.90;;;;;;5008994;28;19909;-77
2023/01/25 10:39:18;;;;;;;;;;;3.90;99.90;;;;;;5007858;28;19913;-78
2023/01/25 10:41:52;;;;;;;;;;;3.90;99.90;;;;;;5009067;28;20561;-78
2023/01/25 10:44:20;;;;;;;;;;;3.90;99.90;;;;;;5008642;28;19917;-77
2023/01/25 10:47:06;;;;;;;;;;;3.90;99.90;;;;;;5008124;28;19951;-78
2023/01/25 10:49:45;;;;;;;;;;;3.90;99.90;;;;;;5012826;28;19917;-80
2023/01/25 10:52:13;;;;;;;;;;;4.00;99.90;;;;;;5012643;28;20376;-78
2023/01/25 10:54:38;;;;;;;;;;;4.00;99.90;;;;;;5009320;28;19913;-78
2023/01/25 10:57:10;;;;;;;;;;;4.00;99.90;;;;;;5009962;28;20384;-77
2023/01/25 10:59:36;;;;;;;;;;;4.00;99.90;;;;;;5012117;28;19955;-80
2023/01/25 11:02:34;;;;;;;;;;;3.90;99.90;;;;;;5009496;28;19921;-78
2023/01/25 11:05:18;;;;;;;;;;;3.90;99.90;;;;;;5015113;28;19996;-78
2023/01/25 11:07:46;;;;;;;;;;;4.00;99.90;;;;;;5010590;28;19913;-80
2023/01/25 11:10:28;;;;;;;;;;;4.10;99.90;;;;;;5011154;28;19964;-79
2023/01/25 11:13:26;;;;;;;;;;;4.10;99.90;;;;;;5009882;28;20008;-77
2023/01/25 11:15:53;;;;;;;;;;;4.20;99.90;;;;;;5006434;28;19961;-80
2023/01/25 11:18:24;;;;;;;;;;;4.10;99.90;;;;;;5009042;28;20380;-76
2023/01/25 11:21:25;;;;;;;;;;;4.10;99.90;;;;;;5012130;28;20006;-76
2023/01/25 11:24:00;;;;;;;;;;;4.10;99.90;;;;;;4988732;28;19910;-77
2023/01/25 11:26:26;;;;;;;;;;;4.20;99.90;;;;;;4988876;28;20033;-78
2023/01/25 11:29:05;;;;;;;;;;;4.20;99.90;;;;;;4983066;28;20417;-77
2023/01/25 11:31:30;;;;;;;;;;;4.20;99.90;;;;;;4980060;28;20439;-77
2023/01/25 11:33:56;;;;;;;;;;;4.20;99.90;;;;;;4985614;28;19910;-77
2023/01/25 11:36:25;;;;;;;;;;;4.20;99.90;;;;;;4990287;28;19914;-77
2023/01/25 11:38:56;;;;;;;;;;;4.20;99.90;;;;;;4987106;28;19917;-77
2023/01/25 11:41:28;;;;;;;;;;;4.30;99.90;;;;;;4985749;28;19961;-78
2023/01/25 11:43:56;;;;;;;;;;;4.20;99.90;;;;;;4987102;28;20373;-77
2023/01/25 11:46:32;;;;;;;;;;;4.30;99.90;;;;;;4989098;28;19921;-76
2023/01/25 11:49:06;;;;;;;;;;;4.30;99.90;;;;;;4989433;28;19914;-76
2023/01/25 11:51:32;;;;;;;;;;;4.30;99.90;;;;;;4984250;28;19945;-77
2023/01/25 11:54:06;;;;;;;;;;;4.30;99.90;;;;;;4989717;28;20668;-77
2023/01/25 11:56:50;;;;;;;;;;;4.30;99.90;;;;;;4986343;28;19913;-78
2023/01/25 11:59:16;;;;;;;;;;;4.30;99.90;;;;;;5008694;28;19913;-77
2023/01/25 12:01:41;;;;;;;;;;;4.40;99.90;;;;;;5011906;28;19920;-77
2023/01/25 12:04:45;;;;;;;;;;;4.40;99.90;;;;;;5011487;28;19909;-76
2023/01/25 12:07:21;;;;;;;;;;;4.30;99.90;;;;;;4948781;28;20416;-77
2023/01/25 12:09:46;;;;;;;;;;;4.40;99.90;;;;;;4950726;28;19914;-77
2023/01/25 12:12:21;;;;;;;;;;;4.30;99.90;;;;;;4981796;28;19982;-77
2023/01/25 12:14:52;;;;;;;;;;;4.40;99.90;;;;;;5014323;28;19909;-77
2023/01/25 12:17:26;;;;;;;;;;;4.40;99.90;;;;;;5010921;28;20327;-77
2023/01/25 12:20:10;;;;;;;;;;;4.40;99.90;;;;;;5009560;28;19964;-77
2023/01/25 12:22:52;;;;;;;;;;;4.40;99.90;;;;;;5011017;28;20442;-77
2023/01/25 12:25:30;;;;;;;;;;;4.40;99.90;;;;;;5005864;28;20024;-77
2023/01/25 12:27:55;;;;;;;;;;;4.50;99.90;;;;;;5018062;28;19967;-77
2023/01/25 12:30:39;;;;;;;;;;;4.50;99.90;;;;;;5012741;28;20018;-78
2023/01/25 12:33:08;;;;;;;;;;;4.60;99.90;;;;;;5010231;28;19913;-78
2023/01/25 12:35:43;;;;;;;;;;;4.50;99.90;;;;;;5023108;28;20335;-78
2023/01/25 12:38:28;;;;;;;;;;;4.60;99.90;;;;;;5008770;28;20445;-77
2023/01/25 12:41:00;;;;;;;;;;;4.60;99.90;;;;;;5012047;28;19936;-77
2023/01/25 12:43:34;;;;;;;;;;;4.40;99.90;;;;;;5019238;28;20214;-77
2023/01/25 12:46:03;;;;;;;;;;;4.50;99.90;;;;;;5011274;28;20315;-77
2023/01/25 12:48:31;;;;;;;;;;;4.50;99.90;;;;;;5012763;28;19996;-76
2023/01/25 12:50:57;;;;;;;;;;;4.50;99.90;;;;;;5013295;28;19944;-78
2023/01/25 12:53:22;;;;;;;;;;;4.40;99.90;;;;;;5014468;28;20418;-76
2023/01/25 12:55:48;;;;;;;;;;;4.50;99.90;;;;;;5006799;28;19948;-76
2023/01/25 12:58:14;;;;;;;;;;;4.60;99.90;;;;;;5007080;28;19917;-76
2023/01/25 13:00:57;;;;;;;;;;;4.50;99.90;;;;;;5011337;28;19957;-77
2023/01/25 13:03:32;;;;;;;;;;;4.60;99.90;;;;;;5010755;28;20295;-77
2023/01/25 13:06:16;;;;;;;;;;;4.50;99.90;;;;;;5011814;28;19965;-77
2023/01/25 13:09:02;;;;;;;;;;;4.50;99.90;;;;;;5011829;28;20007;-77
2023/01/25 13:11:46;;;;;;;;;;;4.60;99.90;;;;;;5017247;28;19917;-78
2023/01/25 13:14:14;;;;;;;;;;;4.60;99.90;;;;;;5005483;28;20394;-78
2023/01/25 13:16:47;;;;;;;;;;;4.70;99.90;;;;;;4997672;28;19916;-77
2023/01/25 13:19:18;;;;;;;;;;;4.80;99.90;;;;;;5014826;28;19913;-77
2023/01/25 13:21:45;;;;;;;;;;;4.80;99.90;;;;;;5009937;28;19948;-78
2023/01/25 13:24:16;;;;;;;;;;;4.90;99.90;;;;;;5008425;28;20331;-80
2023/01/25 13:26:47;;;;;;;;;;;4.80;99.90;;;;;;5006773;28;19920;-79
2023/01/25 13:29:24;;;;;;;;;;;4.90;99.90;;;;;;5009810;28;20299;-79
2023/01/25 13:31:52;;;;;;;;;;;4.90;99.90;;;;;;5008793;28;20257;-80
2023/01/25 13:34:41;;;;;;;;;;;4.80;99.90;;;;;;5007016;28;19916;-77
2023/01/25 13:37:09;;;;;;;;;;;4.80;99.90;;;;;;5000700;28;20285;-79
2023/01/25 13:39:35;;;;;;;;;;;4.80;99.90;;;;;;5008006;28;20364;-79
2023/01/25 13:42:02;;;;;;;;;;;4.90;99.90;;;;;;5010449;28;19955;-77
2023/01/25 13:44:29;;;;;;;;;;;4.80;99.90;;;;;;5008854;28;19917;-79
2023/01/25 13:46:57;;;;;;;;;;;4.80;99.90;;;;;;5090995;23;20296;-91
2023/01/25 13:49:26;;;;;;;;;;;4.80;99.90;;;;;;5030558;28;19905;-90
2023/01/25 13:51:51;;;;;;;;;;;4.70;99.90;;;;;;5031067;28;19956;-91
2023/01/25 13:54:17;;;;;;;;;;;4.70;99.90;;;;;;5042090;28;19908;-91
2023/01/25 13:56:42;;;;;;;;;;;4.80;99.90;;;;;;5051002;28;19951;-90
2023/01/25 13:59:24;;;;;;;;;;;4.80;99.90;;;;;;5032514;28;19909;-91
2023/01/25 14:01:51;;;;;;;;;;;4.80;99.90;;;;;;5030606;28;20027;-91
2023/01/25 14:04:17;;;;;;;;;;;4.70;99.90;;;;;;5041825;23;19972;-72
2023/01/25 14:06:43;;;;;;;;;;;4.80;99.90;;;;;;4989110;28;20766;-73
2023/01/25 14:09:18;;;;;;;;;;;4.90;99.90;;;;;;4985728;28;20013;-73
2023/01/25 14:11:54;;;;;;;;;;;4.80;99.90;;;;;;4981000;28;19914;-80
2023/01/25 14:14:24;;;;;;;;;;;4.80;99.90;;;;;;4981848;28;20415;-73
2023/01/25 14:17:09;;;;;;;;;;;4.80;99.90;;;;;;4983506;28;19960;-73
2023/01/25 14:19:36;;;;;;;;;;;4.70;99.90;;;;;;4994745;28;20321;-73
2023/01/25 14:22:20;;;;;;;;;;;4.70;99.90;;;;;;4989690;28;19920;-73
2023/01/25 14:25:00;;;;;;;;;;;4.70;99.90;;;;;;4992507;28;20372;-78
2023/01/25 14:27:25;;;;;;;;;;;4.70;99.90;;;;;;4988065;28;19914;-73
2023/01/25 14:29:51;;;;;;;;;;;4.80;99.90;;;;;;4986691;28;19944;-79
2023/01/25 14:32:19;;;;;;;;;;;4.70;99.90;;;;;;4983302;28;19928;-79
2023/01/25 14:34:45;;;;;;;;;;;4.70;99.90;;;;;;4996000;28;19964;-79
2023/01/25 14:37:15;;;;;;;;;;;4.60;99.90;;;;;;4989961;28;19945;-73
2023/01/25 14:39:40;;;;;;;;;;;4.50;99.90;;;;;;4991836;28;19921;-73